createdAt,value
2022-09-11T00:02:05.749Z,100736.81
2022-09-11T00:04:33.128Z,100732.53
2022-09-11T00:06:59.982Z,100732.91
2022-09-11T00:09:26.801Z,100735.31
2022-09-11T00:11:53.553Z,100733.59
2022-09-11T00:14:20.332Z,100740.63
2022-09-11T00:16:47.230Z,100735.88
2022-09-11T00:19:14.059Z,100744.13
2022-09-11T00:21:41.004Z,100739.44
2022-09-11T00:24:09.810Z,100750.75
2022-09-11T00:26:36.612Z,100746.66
2022-09-11T00:29:04.051Z,100740.00
2022-09-11T00:31:31.113Z,100741.19
2022-09-11T00:33:57.934Z,100738.31
2022-09-11T00:36:25.685Z,100747.72
2022-09-11T00:38:52.485Z,100745.25
2022-09-11T00:41:19.341Z,100748.78
2022-09-11T00:43:46.104Z,100750.59
2022-09-11T00:46:12.956Z,100749.84
2022-09-11T00:48:39.747Z,100749.38
2022-09-11T00:51:06.584Z,100757.63
2022-09-11T00:53:33.550Z,100757.50
2022-09-11T00:56:00.357Z,100758.13
2022-09-11T00:58:27.276Z,100747.53
2022-09-11T01:00:54.122Z,100757.59
2022-09-11T01:03:20.925Z,100757.81
2022-09-11T01:05:48.195Z,100758.28
2022-09-11T01:08:15.030Z,100765.84
2022-09-11T01:10:41.781Z,100759.66
2022-09-11T01:13:08.556Z,100761.06
2022-09-11T01:15:35.336Z,100756.75
2022-09-11T01:18:02.166Z,100757.19
2022-09-11T01:20:29.930Z,100766.13
2022-09-11T01:22:56.694Z,100765.88
2022-09-11T01:25:23.428Z,100767.88
2022-09-11T01:27:50.792Z,100763.00
2022-09-11T01:30:18.092Z,100763.22
2022-09-11T01:32:44.843Z,100765.06
2022-09-11T01:35:11.989Z,100770.53
2022-09-11T01:37:38.746Z,100767.25
2022-09-11T01:40:05.583Z,100772.22
2022-09-11T01:42:32.916Z,100769.41
2022-09-11T01:44:59.680Z,100770.81
2022-09-11T01:47:26.430Z,100776.06
2022-09-11T01:49:55.006Z,100775.38
2022-09-11T01:52:21.777Z,100771.94
2022-09-11T01:54:49.705Z,100777.16
2022-09-11T01:57:16.454Z,100784.97
2022-09-11T01:59:43.234Z,100772.91
2022-09-11T02:02:10.048Z,100770.63
2022-09-11T02:04:37.649Z,100773.84
2022-09-11T02:07:05.076Z,100773.09
2022-09-11T02:09:31.820Z,100763.16
2022-09-11T02:11:58.572Z,100772.63
2022-09-11T02:14:25.357Z,100775.09
2022-09-11T02:16:52.122Z,100772.75
2022-09-11T02:19:18.870Z,100778.44
2022-09-11T02:21:46.018Z,100783.56
2022-09-11T02:24:12.755Z,100776.88
2022-09-11T02:26:39.692Z,100780.78
2022-09-11T02:29:06.476Z,100785.19
2022-09-11T02:31:33.243Z,100785.91
2022-09-11T02:34:00.664Z,100794.19
2022-09-11T02:36:27.601Z,100795.44
2022-09-11T02:38:54.353Z,100787.16
2022-09-11T02:41:21.666Z,100794.69
2022-09-11T02:43:49.174Z,100797.84
2022-09-11T02:46:16.406Z,100790.28
2022-09-11T02:48:43.232Z,100791.06
2022-09-11T02:51:10.005Z,100801.97
2022-09-11T02:53:36.801Z,100795.34
2022-09-11T02:56:03.553Z,100802.84
2022-09-11T02:58:30.413Z,100793.91
2022-09-11T03:00:57.293Z,100800.72
2022-09-11T03:03:24.061Z,100795.38
2022-09-11T03:05:50.830Z,100805.13
2022-09-11T03:08:17.574Z,100812.78
2022-09-11T03:10:49.854Z,100810.94
2022-09-11T03:13:16.604Z,100814.47
2022-09-11T03:15:43.483Z,100817.53
2022-09-11T03:18:11.475Z,100818.31
2022-09-11T03:20:38.811Z,100819.38
2022-09-11T03:23:10.923Z,100831.94
2022-09-11T03:25:37.716Z,100835.38
2022-09-11T03:28:04.592Z,100824.09
2022-09-11T03:30:31.414Z,100823.63
2022-09-11T03:32:58.430Z,100839.59
2022-09-11T03:35:25.284Z,100836.84
2022-09-11T03:37:52.028Z,100836.38
2022-09-11T03:40:20.083Z,100842.97
2022-09-11T03:42:47.053Z,100847.97
2022-09-11T03:45:14.301Z,100854.09
2022-09-11T03:47:41.048Z,100856.63
2022-09-11T03:50:07.830Z,100857.91
2022-09-11T03:52:34.781Z,100865.59
2022-09-11T03:55:01.569Z,100862.00
2022-09-11T03:57:28.360Z,100864.25
2022-09-11T03:59:56.871Z,100866.44
2022-09-11T04:02:23.721Z,100875.03
2022-09-11T04:04:50.490Z,100866.59
2022-09-11T04:07:17.349Z,100867.03
2022-09-11T04:09:44.120Z,100876.94
2022-09-11T04:12:11.297Z,100877.53
2022-09-11T04:14:38.042Z,100889.81
2022-09-11T04:17:04.939Z,100883.38
2022-09-11T04:19:32.137Z,100890.53
2022-09-11T04:21:58.876Z,100882.47
2022-09-11T04:24:25.749Z,100879.19
2022-09-11T04:26:53.682Z,100881.22
2022-09-11T04:29:23.012Z,100884.69
2022-09-11T04:31:49.909Z,100894.31
2022-09-11T04:34:16.733Z,100890.59
2022-09-11T04:36:43.680Z,100902.50
2022-09-11T04:39:10.435Z,100892.28
2022-09-11T04:41:37.235Z,100894.47
2022-09-11T04:44:05.536Z,100900.59
2022-09-11T04:46:33.228Z,100897.22
2022-09-11T04:49:00.001Z,100892.94
2022-09-11T04:51:28.958Z,100899.41
2022-09-11T04:53:57.359Z,100894.03
2022-09-11T04:56:24.170Z,100907.94
2022-09-11T04:58:50.920Z,100910.56
2022-09-11T05:01:17.858Z,100908.50
2022-09-11T05:03:44.736Z,100903.75
2022-09-11T05:06:11.496Z,100911.25
2022-09-11T05:08:38.246Z,100916.69
2022-09-11T05:11:08.006Z,100920.81
2022-09-11T05:13:36.531Z,100917.69
2022-09-11T05:16:03.586Z,100920.94
2022-09-11T05:18:30.452Z,100934.50
2022-09-11T05:20:57.771Z,100938.47
2022-09-11T05:23:25.358Z,100931.56
2022-09-11T05:25:52.648Z,100939.84
2022-09-11T05:28:19.408Z,100931.31
2022-09-11T05:30:46.341Z,100939.97
2022-09-11T05:33:13.673Z,100939.78
2022-09-11T05:35:40.754Z,100944.44
2022-09-11T05:38:07.500Z,100953.34
2022-09-11T05:40:34.270Z,100954.50
2022-09-11T05:43:01.017Z,100958.78
2022-09-11T05:45:27.817Z,100963.94
2022-09-11T05:47:56.011Z,100977.06
2022-09-11T05:50:23.033Z,100971.22
2022-09-11T05:52:50.868Z,100973.22
2022-09-11T05:55:17.652Z,100987.59
2022-09-11T05:57:44.424Z,100990.41
2022-09-11T06:00:11.181Z,100998.94
2022-09-11T06:02:37.941Z,100993.06
2022-09-11T06:05:04.693Z,100997.19
2022-09-11T06:07:31.462Z,101003.50
2022-09-11T06:10:02.958Z,101004.72
2022-09-11T06:12:30.219Z,101000.22
2022-09-11T06:14:56.969Z,100997.16
2022-09-11T06:17:24.261Z,100996.56
2022-09-11T06:19:51.157Z,101002.66
2022-09-11T06:22:17.922Z,101005.31
2022-09-11T06:24:44.737Z,101015.78
2022-09-11T06:27:11.865Z,101006.91
2022-09-11T06:29:38.616Z,101014.84
2022-09-11T06:32:06.655Z,101021.59
2022-09-11T06:34:33.433Z,101021.09
2022-09-11T06:37:00.236Z,101025.47
2022-09-11T06:39:26.992Z,101017.63
2022-09-11T06:41:53.879Z,101017.94
2022-09-11T06:44:20.649Z,101017.13
2022-09-11T06:46:47.705Z,101018.75
2022-09-11T06:49:14.617Z,101018.34
2022-09-11T06:51:42.221Z,101022.97
2022-09-11T06:54:08.985Z,101021.94
2022-09-11T06:56:35.728Z,101026.88
2022-09-11T06:59:02.505Z,101021.06
2022-09-11T07:01:29.409Z,101028.38
2022-09-11T07:03:56.321Z,101034.22
2022-09-11T07:06:23.084Z,101033.88
2022-09-11T07:08:52.026Z,101031.94
2022-09-11T07:11:18.772Z,101032.94
2022-09-11T07:13:45.601Z,101042.88
2022-09-11T07:16:16.332Z,101036.25
2022-09-11T07:18:43.160Z,101037.72
2022-09-11T07:21:11.129Z,101032.59
2022-09-11T07:23:37.902Z,101036.13
2022-09-11T07:26:04.819Z,101034.16
2022-09-11T07:28:31.601Z,101041.13
2022-09-11T07:30:58.455Z,101038.72
2022-09-11T07:33:25.268Z,101034.75
2022-09-11T07:35:52.241Z,101050.56
2022-09-11T07:38:19.132Z,101049.47
2022-09-11T07:40:45.901Z,101055.91
2022-09-11T07:43:13.434Z,101057.78
2022-09-11T07:45:40.280Z,101052.41
2022-09-11T07:48:07.123Z,101056.13
2022-09-11T07:50:33.908Z,101052.34
2022-09-11T07:53:00.891Z,101039.78
2022-09-11T07:55:27.639Z,101044.81
2022-09-11T07:57:54.421Z,101048.00
2022-09-11T08:00:21.245Z,101047.59
2022-09-11T08:02:48.342Z,101055.72
2022-09-11T08:05:15.519Z,101052.44
2022-09-11T08:07:42.402Z,101057.78
2022-09-11T08:10:26.551Z,101059.38
2022-09-11T08:12:59.181Z,101073.06
2022-09-11T08:15:27.965Z,101081.56
2022-09-11T08:17:54.760Z,101080.78
2022-09-11T08:20:21.661Z,101080.69
2022-09-11T08:22:48.443Z,101086.81
2022-09-11T08:25:15.254Z,101091.88
2022-09-11T08:27:42.010Z,101089.63
2022-09-11T08:30:08.758Z,101082.91
2022-09-11T08:32:35.512Z,101083.34
2022-09-11T08:35:02.258Z,101087.00
2022-09-11T08:37:29.174Z,101087.56
2022-09-11T08:39:55.988Z,101087.75
2022-09-11T08:42:23.229Z,101083.03
2022-09-11T08:44:50.064Z,101094.81
2022-09-11T08:47:18.892Z,101085.84
2022-09-11T08:49:46.242Z,101090.91
2022-09-11T08:52:13.185Z,101094.59
2022-09-11T08:54:39.989Z,101101.00
2022-09-11T08:57:07.015Z,101103.91
2022-09-11T08:59:33.937Z,101108.78
2022-09-11T09:02:00.722Z,101109.81
2022-09-11T09:04:28.019Z,101109.84
2022-09-11T09:06:54.782Z,101110.91
2022-09-11T09:09:21.772Z,101110.63
2022-09-11T09:11:48.656Z,101112.28
2022-09-11T09:14:15.435Z,101117.16
2022-09-11T09:16:42.315Z,101125.31
2022-09-11T09:19:09.985Z,101130.34
2022-09-11T09:21:36.732Z,101132.38
2022-09-11T09:24:03.489Z,101138.28
2022-09-11T09:26:30.346Z,101135.34
2022-09-11T09:28:57.125Z,101135.88
2022-09-11T09:31:23.959Z,101134.78
2022-09-11T09:33:51.119Z,101136.28
2022-09-11T09:36:17.917Z,101133.38
2022-09-11T09:38:45.195Z,101130.69
2022-09-11T09:41:12.033Z,101130.34
2022-09-11T09:43:38.903Z,101136.63
2022-09-11T09:46:05.708Z,101141.22
2022-09-11T09:48:32.504Z,101145.81
2022-09-11T09:50:59.379Z,101151.06
2022-09-11T09:53:27.391Z,101149.38
2022-09-11T09:55:54.289Z,101153.31
2022-09-11T09:58:21.051Z,101151.84
2022-09-11T10:00:47.815Z,101152.97
2022-09-11T10:03:14.572Z,101152.81
2022-09-11T10:05:41.311Z,101160.09
2022-09-11T10:08:08.138Z,101152.00
2022-09-11T10:10:36.221Z,101155.72
2022-09-11T10:13:18.486Z,101156.44
2022-09-11T10:15:48.117Z,101153.25
2022-09-11T10:18:15.423Z,101155.78
2022-09-11T10:20:42.220Z,101158.66
2022-09-11T10:23:09.407Z,101156.09
2022-09-11T10:25:36.213Z,101155.66
2022-09-11T10:28:03.377Z,101158.59
2022-09-11T10:30:30.200Z,101150.53
2022-09-11T10:33:00.123Z,101161.88
2022-09-11T10:35:30.035Z,101162.47
2022-09-11T10:37:57.185Z,101162.28
2022-09-11T10:40:23.948Z,101158.28
2022-09-11T10:42:50.709Z,101153.91
2022-09-11T10:45:17.517Z,101151.56
2022-09-11T10:47:45.609Z,101154.31
2022-09-11T10:50:12.362Z,101152.19
2022-09-11T10:52:39.126Z,101154.31
2022-09-11T10:55:05.910Z,101162.31
2022-09-11T10:57:33.483Z,101168.34
2022-09-11T11:00:00.258Z,101172.13
2022-09-11T11:02:28.460Z,101158.16
2022-09-11T11:04:55.280Z,101166.38
2022-09-11T11:07:22.069Z,101161.41
2022-09-11T11:09:48.846Z,101162.75
2022-09-11T11:12:17.381Z,101163.56
2022-09-11T11:14:44.140Z,101160.69
2022-09-11T11:17:10.912Z,101157.72
2022-09-11T11:19:38.437Z,101161.63
2022-09-11T11:22:05.205Z,101158.09
2022-09-11T11:24:32.331Z,101159.16
2022-09-11T11:26:59.133Z,101158.03
2022-09-11T11:29:25.931Z,101155.19
2022-09-11T11:31:52.681Z,101153.53
2022-09-11T11:34:19.432Z,101157.72
2022-09-11T11:36:46.590Z,101157.28
2022-09-11T11:39:13.350Z,101153.75
2022-09-11T11:41:42.460Z,101141.09
2022-09-11T11:44:10.043Z,101144.06
2022-09-11T11:46:38.682Z,101142.88
2022-09-11T11:49:05.439Z,101146.69
2022-09-11T11:51:32.210Z,101151.75
2022-09-11T11:53:59.717Z,101154.25
2022-09-11T11:56:28.889Z,101161.53
2022-09-11T11:58:55.653Z,101153.50
2022-09-11T12:01:22.408Z,101149.69
2022-09-11T12:03:50.261Z,101156.84
2022-09-11T12:06:17.124Z,101153.00
2022-09-11T12:08:44.492Z,101150.03
2022-09-11T12:11:12.387Z,101154.34
2022-09-11T12:13:39.213Z,101148.00
2022-09-11T12:16:10.620Z,101144.84
2022-09-11T12:18:38.403Z,101140.56
2022-09-11T12:21:05.178Z,101147.72
2022-09-11T12:23:32.078Z,101140.72
2022-09-11T12:25:58.980Z,101141.66
2022-09-11T12:28:25.897Z,101139.16
2022-09-11T12:30:52.871Z,101139.06
2022-09-11T12:33:19.613Z,101146.63
2022-09-11T12:35:46.563Z,101140.84
2022-09-11T12:38:13.335Z,101135.72
2022-09-11T12:40:40.165Z,101128.59
2022-09-11T12:43:09.102Z,101126.56
2022-09-11T12:45:36.152Z,101133.66
2022-09-11T12:48:02.954Z,101133.38
2022-09-11T12:50:29.760Z,101130.13
2022-09-11T12:53:02.135Z,101137.09
2022-09-11T12:55:29.611Z,101138.63
2022-09-11T12:57:56.692Z,101134.63
2022-09-11T13:00:23.638Z,101132.09
2022-09-11T13:02:50.429Z,101133.94
2022-09-11T13:05:17.223Z,101133.75
2022-09-11T13:07:44.008Z,101128.31
2022-09-11T13:10:10.960Z,101127.63
2022-09-11T13:12:37.727Z,101120.50
2022-09-11T13:15:05.033Z,101129.75
2022-09-11T13:17:31.776Z,101127.41
2022-09-11T13:19:58.710Z,101125.63
2022-09-11T13:22:25.587Z,101118.44
2022-09-11T13:24:52.414Z,101129.16
2022-09-11T13:27:19.370Z,101120.25
2022-09-11T13:29:46.102Z,101117.00
2022-09-11T13:32:12.952Z,101111.38
2022-09-11T13:34:39.715Z,101105.84
2022-09-11T13:37:06.457Z,101103.31
2022-09-11T13:39:33.248Z,101101.34
2022-09-11T13:42:00.018Z,101100.00
2022-09-11T13:44:27.791Z,101107.31
2022-09-11T13:46:55.549Z,101104.53
2022-09-11T13:49:22.308Z,101106.56
2022-09-11T13:51:49.058Z,101103.75
2022-09-11T13:54:15.857Z,101108.13
2022-09-11T13:56:47.074Z,101103.91
2022-09-11T13:59:13.828Z,101100.44
2022-09-11T14:01:40.650Z,101094.44
2022-09-11T14:04:07.554Z,101096.31
2022-09-11T14:06:34.361Z,101094.06
2022-09-11T14:09:01.304Z,101090.72
2022-09-11T14:11:28.149Z,101096.75
2022-09-11T14:13:56.468Z,101103.22
2022-09-11T14:16:23.311Z,101102.38
2022-09-11T14:18:50.124Z,101094.69
2022-09-11T14:21:16.923Z,101095.69
2022-09-11T14:23:43.725Z,101089.13
2022-09-11T14:26:10.578Z,101094.59
2022-09-11T14:28:37.364Z,101097.88
2022-09-11T14:31:04.199Z,101094.19
2022-09-11T14:33:31.205Z,101099.19
2022-09-11T14:35:57.949Z,101095.16
2022-09-11T14:38:26.174Z,101102.06
2022-09-11T14:40:52.941Z,101099.91
2022-09-11T14:43:20.977Z,101108.22
2022-09-11T14:45:51.061Z,101100.63
2022-09-11T14:48:18.697Z,101110.34
2022-09-11T14:50:45.456Z,101098.84
2022-09-11T14:53:12.222Z,101094.97
2022-09-11T14:55:38.980Z,101099.47
2022-09-11T14:58:05.780Z,101101.41
2022-09-11T15:00:32.545Z,101100.03
2022-09-11T15:03:00.323Z,101108.25
2022-09-11T15:05:27.191Z,101109.28
2022-09-11T15:07:53.951Z,101109.25
2022-09-11T15:10:20.724Z,101107.50
2022-09-11T15:12:48.966Z,101111.50
2022-09-11T15:15:15.853Z,101115.03
2022-09-11T15:17:42.610Z,101123.47
2022-09-11T15:20:10.200Z,101113.25
2022-09-11T15:22:38.082Z,101121.06
2022-09-11T15:25:04.839Z,101121.59
2022-09-11T15:27:31.588Z,101110.44
2022-09-11T15:29:58.421Z,101109.59
2022-09-11T15:32:25.211Z,101113.63
2022-09-11T15:34:52.040Z,101113.09
2022-09-11T15:37:18.798Z,101104.22
2022-09-11T15:39:45.670Z,101117.44
2022-09-11T15:42:13.260Z,101110.84
2022-09-11T15:44:40.004Z,101113.31
2022-09-11T15:47:06.992Z,101114.38
2022-09-11T15:49:34.541Z,101120.63
2022-09-11T15:52:01.300Z,101117.88
2022-09-11T15:54:28.163Z,101117.84
2022-09-11T15:56:55.139Z,101121.06
2022-09-11T15:59:21.929Z,101111.50
2022-09-11T16:01:48.807Z,101111.25
2022-09-11T16:04:15.640Z,101119.56
2022-09-11T16:06:42.444Z,101116.28
2022-09-11T16:09:09.221Z,101110.53
2022-09-11T16:11:43.769Z,101112.34
2022-09-11T16:14:10.542Z,101101.16
2022-09-11T16:16:37.712Z,101106.56
2022-09-11T16:19:04.730Z,101102.66
2022-09-11T16:21:31.704Z,101107.75
2022-09-11T16:24:01.588Z,101099.25
2022-09-11T16:26:31.557Z,101113.31
2022-09-11T16:28:58.321Z,101103.63
2022-09-11T16:31:25.114Z,101100.63
2022-09-11T16:33:55.152Z,101100.63
2022-09-11T16:36:22.504Z,101104.22
2022-09-11T16:38:52.410Z,101104.59
2022-09-11T16:41:19.280Z,101107.13
2022-09-11T16:43:46.071Z,101105.31
2022-09-11T16:46:12.992Z,101106.97
2022-09-11T16:48:39.729Z,101104.41
2022-09-11T16:51:06.505Z,101100.16
2022-09-11T16:53:33.313Z,101102.47
2022-09-11T16:56:01.338Z,101101.81
2022-09-11T16:58:28.834Z,101101.06
2022-09-11T17:00:55.693Z,101100.44
2022-09-11T17:03:22.725Z,101101.34
2022-09-11T17:05:49.479Z,101096.22
2022-09-11T17:08:16.236Z,101102.25
2022-09-11T17:10:43.181Z,101101.69
2022-09-11T17:13:10.305Z,101099.34
2022-09-11T17:15:37.100Z,101095.41
2022-09-11T17:18:04.126Z,101104.06
2022-09-11T17:20:30.898Z,101114.59
2022-09-11T17:22:58.279Z,101115.81
2022-09-11T17:25:25.738Z,101107.34
2022-09-11T17:27:52.506Z,101111.13
2022-09-11T17:30:19.570Z,101107.25
2022-09-11T17:32:46.328Z,101110.13
2022-09-11T17:35:13.289Z,101102.78
2022-09-11T17:37:40.033Z,101106.50
2022-09-11T17:40:06.900Z,101100.00
2022-09-11T17:42:33.694Z,101101.28
2022-09-11T17:45:00.514Z,101108.19
2022-09-11T17:47:27.257Z,101110.19
2022-09-11T17:49:54.029Z,101115.00
2022-09-11T17:52:20.830Z,101116.28
2022-09-11T17:54:47.660Z,101119.81
2022-09-11T17:57:15.477Z,101120.84
2022-09-11T17:59:43.905Z,101111.47
2022-09-11T18:02:11.205Z,101112.75
2022-09-11T18:04:38.374Z,101101.50
2022-09-11T18:07:05.125Z,101105.84
2022-09-11T18:09:32.079Z,101111.72
2022-09-11T18:11:59.087Z,101110.13
2022-09-11T18:14:27.562Z,101117.34
2022-09-11T18:16:54.550Z,101122.53
2022-09-11T18:19:21.350Z,101118.50
2022-09-11T18:21:50.441Z,101129.78
2022-09-11T18:24:19.922Z,101122.63
2022-09-11T18:26:46.816Z,101134.66
2022-09-11T18:29:13.736Z,101133.75
2022-09-11T18:31:40.619Z,101139.22
2022-09-11T18:34:07.412Z,101137.25
2022-09-11T18:36:34.195Z,101125.88
2022-09-11T18:39:00.996Z,101134.28
2022-09-11T18:41:27.780Z,101140.25
2022-09-11T18:43:54.532Z,101143.72
2022-09-11T18:46:22.000Z,101134.63
2022-09-11T18:48:52.460Z,101140.53
2022-09-11T18:51:19.741Z,101153.59
2022-09-11T18:53:46.569Z,101164.09
2022-09-11T18:56:13.387Z,101156.88
2022-09-11T18:58:40.230Z,101163.66
2022-09-11T19:01:07.276Z,101167.66
2022-09-11T19:03:34.253Z,101163.56
2022-09-11T19:06:01.016Z,101165.94
2022-09-11T19:08:27.760Z,101159.13
2022-09-11T19:10:54.534Z,101167.69
2022-09-11T19:13:22.529Z,101162.13
2022-09-11T19:15:49.296Z,101171.41
2022-09-11T19:18:16.078Z,101172.25
2022-09-11T19:20:43.246Z,101173.06
2022-09-11T19:23:10.006Z,101173.50
2022-09-11T19:25:36.781Z,101177.00
2022-09-11T19:28:04.582Z,101178.25
2022-09-11T19:30:31.497Z,101179.88
2022-09-11T19:33:00.391Z,101179.69
2022-09-11T19:35:27.314Z,101185.16
2022-09-11T19:37:55.831Z,101182.25
2022-09-11T19:40:22.649Z,101174.81
2022-09-11T19:42:49.401Z,101181.00
2022-09-11T19:45:16.379Z,101175.69
2022-09-11T19:47:43.184Z,101180.91
2022-09-11T19:50:10.013Z,101175.66
2022-09-11T19:52:36.756Z,101184.84
2022-09-11T19:55:03.824Z,101178.06
2022-09-11T19:57:30.890Z,101181.47
2022-09-11T19:59:57.653Z,101190.94
2022-09-11T20:02:24.777Z,101197.88
2022-09-11T20:04:51.532Z,101190.66
2022-09-11T20:07:18.304Z,101192.41
2022-09-11T20:09:45.084Z,101199.63
2022-09-11T20:12:11.829Z,101196.41
2022-09-11T20:14:42.392Z,101193.28
2022-09-11T20:17:10.250Z,101186.59
2022-09-11T20:19:37.064Z,101195.66
2022-09-11T20:22:03.813Z,101194.44
2022-09-11T20:24:30.588Z,101193.78
2022-09-11T20:26:57.373Z,101200.97
2022-09-11T20:29:24.308Z,101196.25
2022-09-11T20:31:51.273Z,101199.19
2022-09-11T20:34:18.203Z,101197.91
2022-09-11T20:36:44.972Z,101204.66
2022-09-11T20:39:12.649Z,101200.22
2022-09-11T20:41:39.432Z,101202.06
2022-09-11T20:44:06.385Z,101196.97
2022-09-11T20:46:33.266Z,101198.53
2022-09-11T20:49:00.741Z,101198.47
2022-09-11T20:51:27.660Z,101196.78
2022-09-11T20:53:54.821Z,101199.31
2022-09-11T20:56:23.414Z,101194.00
2022-09-11T20:58:50.232Z,101193.78
2022-09-11T21:01:17.408Z,101190.38
2022-09-11T21:03:44.317Z,101197.53
2022-09-11T21:06:11.153Z,101197.91
2022-09-11T21:08:38.145Z,101199.59
2022-09-11T21:11:04.931Z,101200.00
2022-09-11T21:13:31.766Z,101195.94
2022-09-11T21:15:58.630Z,101195.44
2022-09-11T21:18:25.704Z,101201.50
2022-09-11T21:20:52.442Z,101196.09
2022-09-11T21:23:19.222Z,101193.69
2022-09-11T21:25:48.626Z,101202.06
2022-09-11T21:28:18.829Z,101186.84
2022-09-11T21:30:45.620Z,101188.47
2022-09-11T21:33:12.421Z,101197.56
2022-09-11T21:35:39.177Z,101195.66
2022-09-11T21:38:05.958Z,101201.31
2022-09-11T21:40:32.756Z,101201.50
2022-09-11T21:42:59.551Z,101207.41
2022-09-11T21:45:26.339Z,101202.53
2022-09-11T21:47:53.102Z,101201.22
2022-09-11T21:50:19.872Z,101188.91
2022-09-11T21:52:46.622Z,101184.31
2022-09-11T21:55:13.435Z,101190.94
2022-09-11T21:57:40.181Z,101191.78
2022-09-11T22:00:11.865Z,101187.09
2022-09-11T22:02:38.660Z,101187.59
2022-09-11T22:05:05.430Z,101184.06
2022-09-11T22:07:32.316Z,101188.72
2022-09-11T22:09:59.369Z,101189.53
2022-09-11T22:12:26.208Z,101192.50
2022-09-11T22:14:54.764Z,101184.41
2022-09-11T22:17:21.754Z,101199.19
2022-09-11T22:19:48.643Z,101196.22
2022-09-11T22:22:15.429Z,101196.63
2022-09-11T22:24:42.182Z,101198.94
2022-09-11T22:27:09.142Z,101204.56
2022-09-11T22:29:36.878Z,101201.00
2022-09-11T22:32:03.628Z,101199.47
2022-09-11T22:34:30.384Z,101194.00
2022-09-11T22:36:57.144Z,101199.44
2022-09-11T22:39:23.898Z,101194.63
2022-09-11T22:41:50.956Z,101203.44
2022-09-11T22:44:19.671Z,101199.28
2022-09-11T22:46:48.820Z,101193.81
2022-09-11T22:49:15.814Z,101195.91
2022-09-11T22:51:42.814Z,101196.31
2022-09-11T22:54:09.708Z,101194.78
2022-09-11T22:56:36.978Z,101203.84
2022-09-11T22:59:03.872Z,101202.16
2022-09-11T23:01:30.657Z,101200.22
2022-09-11T23:03:57.430Z,101199.13
2022-09-11T23:06:43.085Z,101190.63
2022-09-11T23:09:09.867Z,101190.38
2022-09-11T23:11:36.719Z,101186.56
2022-09-11T23:14:03.557Z,101185.25
2022-09-11T23:16:30.368Z,101183.41
2022-09-11T23:18:57.141Z,101183.97
2022-09-11T23:21:23.913Z,101177.31
2022-09-11T23:23:54.305Z,101175.66
2022-09-11T23:26:21.549Z,101178.81
2022-09-11T23:28:48.341Z,101174.72
2022-09-11T23:31:15.133Z,101173.88
2022-09-11T23:33:42.095Z,101178.94
2022-09-11T23:36:08.989Z,101184.41
2022-09-11T23:38:35.772Z,101184.84
2022-09-11T23:41:02.585Z,101176.97
2022-09-11T23:43:29.515Z,101182.63
2022-09-11T23:45:56.446Z,101185.78
2022-09-11T23:48:23.717Z,101179.63
2022-09-11T23:50:50.489Z,101183.06
2022-09-11T23:53:17.234Z,101170.84
2022-09-11T23:55:43.981Z,101174.78
2022-09-11T23:58:10.785Z,101171.28
